Flight Sim Network - LFLC Airport Info

    LFLC (Clermont-Ferrand Auvergne Airport)  Login to use Map Selector
   

  RUNWAY INFORMATION    |    Airport Elevation : 1090ft    |    LAT : 45.7867012023926  /  LON : 3.16916990280151
Runway Number 08 / 26 Runway Width 148' Runway Length 9885'
Lighted Runway Yes Runway StatusOpen Runway Surface Asphalt
Runway Number 08L / 26R Runway Width 161' Runway Length 2953'
Lighted Runway No Runway StatusOpen Runway Surface Grass
Runway Number 01 / 19 Runway Width 197' Runway Length 2313'
Lighted Runway No Runway StatusOpen Runway Surface Grass
  CLOSE ALTERNATE AIRPORTS
ICAODistanceAirport NameLongest RWRW SurfaceMAP
LFLV25NMCharmeil7218FTAsphalt
LFHX33NMPerigny3937FTAsphalt
LFCU35NMThalamy4429FTAsphalt
LFLO38NMRoanne-Renaison Airport4825FTAsphalt
LFLT42NMDomerat3281FTAsphalt
LFBK43NMMontluçon-Guéret Airport6234FTAsphalt
LFHQ43NMColtines4307FTAsphalt
LFLZ43NMChambeon3084FTDirt
LFHY46NMMoulins-Montbeugny Airport4265FTAsphalt
LFHP49NMLe Puy-Loudes Airport4686FTAsphalt
  AIRPORT WEATHER
72°F | 22°C
Temperature
53%
Humidity
30.12" | 0mb
Pressure
6sm
Visibility
VFR
Flight Rules
CAVOK
Initial Clouds
FAIR
Conditions
Wind Info
10/2/23 17:00Z
Updated

LFLC 022100Z AUTO 19008KT 120V240 CAVOK 22/12 Q1020 TEMPO 20015G25KT
  AIRPORT FREQUENCIES
NameFrequency
ATIS136.400
CLEARANCE128.620
GROUND121.950
TOWER118.620
APPROACH120.320
DEPARTURE128.620
CF (RWY 26)111.100
Array (RWY 26R)111.100

Powered by Virtual Airlines Manager